createdAt,value
2019-02-10T00:01:34.612Z,7.72
2019-02-10T00:04:03.812Z,7.74
2019-02-10T00:06:33.002Z,7.71
2019-02-10T00:09:02.214Z,7.70
2019-02-10T00:11:31.364Z,7.66
2019-02-10T00:14:00.647Z,7.72
2019-02-10T00:16:30.090Z,7.75
2019-02-10T00:18:59.256Z,7.71
2019-02-10T00:21:28.553Z,7.70
2019-02-10T00:23:57.870Z,7.70
2019-02-10T00:26:27.260Z,7.69
2019-02-10T00:28:56.470Z,7.69
2019-02-10T00:31:25.838Z,7.69
2019-02-10T00:33:55.002Z,7.72
2019-02-10T00:36:24.210Z,7.72
2019-02-10T00:38:53.552Z,7.70
2019-02-10T00:41:25.519Z,7.79
2019-02-10T00:43:54.738Z,7.79
2019-02-10T00:46:23.919Z,7.76
2019-02-10T00:48:53.155Z,7.75
2019-02-10T00:51:22.338Z,7.79
2019-02-10T00:53:51.489Z,7.80
2019-02-10T00:56:21.183Z,7.89
2019-02-10T00:58:50.364Z,7.88
2019-02-10T01:01:19.546Z,7.84
2019-02-10T01:03:48.744Z,7.82
2019-02-10T01:06:17.901Z,7.75
2019-02-10T01:08:47.213Z,7.72
2019-02-10T01:11:16.357Z,7.67
2019-02-10T01:13:45.582Z,7.63
2019-02-10T01:16:14.807Z,7.59
2019-02-10T01:19:21.825Z,7.54
2019-02-10T01:21:51.204Z,7.53
2019-02-10T01:24:20.402Z,7.52
2019-02-10T01:26:49.565Z,7.43
2019-02-10T01:29:18.851Z,7.35
2019-02-10T01:31:48.142Z,7.33
2019-02-10T01:34:17.439Z,7.25
2019-02-10T01:36:49.830Z,7.27
2019-02-10T01:39:19.782Z,7.25
2019-02-10T01:41:48.964Z,7.21
2019-02-10T01:44:18.391Z,7.24
2019-02-10T01:46:47.590Z,7.28
2019-02-10T01:49:16.730Z,7.28
2019-02-10T01:51:45.910Z,7.34
2019-02-10T01:54:15.285Z,7.35
2019-02-10T01:56:44.449Z,7.37
2019-02-10T01:59:13.619Z,7.38
2019-02-10T02:01:42.827Z,7.42
2019-02-10T02:04:12.025Z,7.41
2019-02-10T02:06:41.637Z,7.44
2019-02-10T02:09:13.102Z,7.46
2019-02-10T02:11:42.446Z,7.44
2019-02-10T02:14:11.752Z,7.47
2019-02-10T02:16:40.904Z,7.54
2019-02-10T02:19:10.084Z,7.54
2019-02-10T02:21:39.265Z,7.61
2019-02-10T02:24:08.398Z,7.63
2019-02-10T02:26:37.800Z,7.67
2019-02-10T02:29:06.944Z,7.70
2019-02-10T02:31:36.193Z,7.65
2019-02-10T02:34:05.397Z,7.68
2019-02-10T02:36:42.223Z,7.65
2019-02-10T02:39:11.518Z,7.61
2019-02-10T02:41:40.685Z,7.57
2019-02-10T02:44:09.839Z,7.56
2019-02-10T02:46:39.136Z,7.54
2019-02-10T02:49:08.279Z,7.59
2019-02-10T02:51:37.490Z,7.64
2019-02-10T02:54:06.992Z,7.62
2019-02-10T02:56:36.189Z,7.66
2019-02-10T02:59:05.404Z,7.65
2019-02-10T03:01:34.602Z,7.63
2019-02-10T03:04:03.869Z,7.62
2019-02-10T03:06:48.653Z,7.63
2019-02-10T03:09:18.229Z,7.64
2019-02-10T03:11:47.376Z,7.57
2019-02-10T03:14:16.634Z,7.58
2019-02-10T03:16:45.838Z,7.55
2019-02-10T03:19:15.014Z,7.55
2019-02-10T03:21:44.192Z,7.53
2019-02-10T03:24:13.564Z,7.49
2019-02-10T03:26:42.730Z,7.47
2019-02-10T03:29:11.989Z,7.43
2019-02-10T03:31:41.150Z,7.41
2019-02-10T03:34:10.435Z,7.40
2019-02-10T03:36:39.588Z,7.34
2019-02-10T03:39:08.777Z,7.35
2019-02-10T03:41:37.933Z,7.35
2019-02-10T03:44:07.249Z,7.34
2019-02-10T03:46:36.415Z,7.28
2019-02-10T03:49:05.632Z,7.28
2019-02-10T03:51:34.930Z,7.21
2019-02-10T03:54:06.411Z,7.16
2019-02-10T03:56:35.684Z,7.22
2019-02-10T03:59:04.827Z,7.18
2019-02-10T04:01:34.013Z,7.14
2019-02-10T04:04:03.327Z,7.15
2019-02-10T04:06:32.511Z,7.07
2019-02-10T04:09:01.914Z,7.05
2019-02-10T04:11:31.108Z,6.94
2019-02-10T04:14:00.403Z,6.89
2019-02-10T04:16:29.895Z,6.90
2019-02-10T04:18:59.038Z,6.87
2019-02-10T04:21:28.270Z,6.89
2019-02-10T04:23:57.484Z,6.80
2019-02-10T04:26:26.835Z,6.73
2019-02-10T04:28:55.990Z,6.73
2019-02-10T04:31:25.175Z,6.73
2019-02-10T04:33:54.311Z,6.67
2019-02-10T04:36:23.498Z,6.66
2019-02-10T04:38:52.639Z,6.64
2019-02-10T04:41:21.812Z,6.65
2019-02-10T04:43:51.042Z,6.59
2019-02-10T04:46:20.209Z,6.58
2019-02-10T04:48:49.340Z,6.58
2019-02-10T04:51:18.685Z,6.56
2019-02-10T04:53:47.858Z,6.51
2019-02-10T04:56:18.418Z,6.52
2019-02-10T04:58:47.689Z,6.54
2019-02-10T05:01:17.082Z,6.51
2019-02-10T05:03:46.432Z,6.49
2019-02-10T05:06:15.614Z,6.50
2019-02-10T05:08:45.133Z,6.50
2019-02-10T05:11:14.294Z,6.45
2019-02-10T05:13:43.442Z,6.39
2019-02-10T05:16:12.797Z,6.34
2019-02-10T05:18:41.985Z,6.31
2019-02-10T05:21:11.155Z,6.32
2019-02-10T05:23:40.347Z,6.32
2019-02-10T05:26:09.733Z,6.29
2019-02-10T05:28:39.110Z,6.28
2019-02-10T05:31:08.297Z,6.29
2019-02-10T05:33:37.440Z,6.19
2019-02-10T05:36:06.967Z,6.15
2019-02-10T05:38:36.174Z,6.11
2019-02-10T05:41:05.406Z,6.08
2019-02-10T05:43:34.588Z,6.13
2019-02-10T05:46:03.795Z,6.08
2019-02-10T05:48:33.236Z,6.04
2019-02-10T05:51:02.490Z,6.05
2019-02-10T05:53:31.622Z,6.03
2019-02-10T05:56:02.473Z,6.02
2019-02-10T05:58:31.743Z,5.98
2019-02-10T06:01:50.176Z,5.99
2019-02-10T06:04:19.380Z,6.01
2019-02-10T06:06:48.565Z,5.99
2019-02-10T06:09:17.749Z,5.97
2019-02-10T06:11:46.945Z,5.97
2019-02-10T06:14:16.134Z,5.94
2019-02-10T06:16:45.282Z,5.96
2019-02-10T06:19:14.570Z,5.98
2019-02-10T06:21:43.758Z,5.99
2019-02-10T06:24:12.956Z,5.99
2019-02-10T06:26:42.165Z,6.02
2019-02-10T06:29:11.300Z,6.00
2019-02-10T06:31:40.535Z,6.02
2019-02-10T06:34:09.911Z,6.04
2019-02-10T06:36:39.153Z,6.04
2019-02-10T06:39:08.513Z,6.05
2019-02-10T06:41:37.698Z,6.11
2019-02-10T06:44:06.842Z,6.11
2019-02-10T06:46:36.010Z,6.14
2019-02-10T06:49:05.199Z,6.11
2019-02-10T06:51:34.339Z,6.13
2019-02-10T06:54:03.647Z,6.14
2019-02-10T06:56:32.934Z,6.16
2019-02-10T06:59:02.081Z,6.18
2019-02-10T07:01:45.121Z,6.21
2019-02-10T07:04:22.780Z,6.23
2019-02-10T07:06:51.948Z,6.28
2019-02-10T07:09:22.837Z,6.30
2019-02-10T07:11:52.221Z,6.28
2019-02-10T07:14:24.961Z,6.32
2019-02-10T07:17:24.589Z,6.31
2019-02-10T07:20:45.314Z,6.36
2019-02-10T07:24:06.732Z,6.39
2019-02-10T07:27:08.167Z,6.44
2019-02-10T07:30:09.537Z,6.52
2019-02-10T07:32:42.525Z,6.58
2019-02-10T07:35:52.308Z,6.61
2019-02-10T07:39:17.629Z,6.64
2019-02-10T07:42:31.000Z,6.70
2019-02-10T07:45:54.993Z,6.69
2019-02-10T07:48:54.887Z,6.74
2019-02-10T07:51:46.473Z,6.79
2019-02-10T07:54:56.782Z,6.83
2019-02-10T07:57:51.214Z,6.85
2019-02-10T08:01:22.762Z,6.97
2019-02-10T08:04:08.389Z,7.01
2019-02-10T08:07:09.301Z,7.03
2019-02-10T08:10:00.715Z,7.10
2019-02-10T08:12:58.345Z,7.13
2019-02-10T08:15:58.839Z,7.19
2019-02-10T08:19:18.228Z,7.22
2019-02-10T08:22:20.006Z,7.31
2019-02-10T08:25:25.437Z,7.36
2019-02-10T08:28:28.276Z,7.43
2019-02-10T08:31:09.294Z,7.54
2019-02-10T08:34:16.729Z,7.60
2019-02-10T08:37:19.885Z,7.65
2019-02-10T08:40:03.002Z,7.73
2019-02-10T08:43:02.846Z,7.75
2019-02-10T08:45:54.130Z,7.76
2019-02-10T08:48:55.330Z,7.81
2019-02-10T08:51:54.578Z,7.96
2019-02-10T08:54:23.811Z,8.01
2019-02-10T08:56:53.085Z,8.05
2019-02-10T08:59:22.450Z,8.04
2019-02-10T09:01:51.663Z,8.08
2019-02-10T09:04:20.825Z,8.07
2019-02-10T09:06:50.124Z,8.11
2019-02-10T09:09:19.325Z,8.13
2019-02-10T09:11:48.654Z,8.16
2019-02-10T09:14:18.122Z,8.19
2019-02-10T09:16:47.605Z,8.19
2019-02-10T09:19:16.818Z,8.19
2019-02-10T09:21:47.162Z,8.26
2019-02-10T09:24:16.427Z,8.35
2019-02-10T09:26:45.574Z,8.38
2019-02-10T09:29:14.795Z,8.45
2019-02-10T09:31:43.952Z,8.50
2019-02-10T09:34:13.191Z,8.54
2019-02-10T09:36:42.447Z,8.58
2019-02-10T09:39:11.672Z,8.60
2019-02-10T09:41:40.923Z,8.65
2019-02-10T09:44:10.964Z,8.70
2019-02-10T09:46:40.157Z,8.70
2019-02-10T09:49:09.352Z,8.74
2019-02-10T09:51:38.534Z,8.75
2019-02-10T09:54:07.794Z,8.83
2019-02-10T09:56:36.984Z,8.87
2019-02-10T09:59:06.159Z,8.93
2019-02-10T10:01:35.283Z,8.96
2019-02-10T10:04:04.742Z,9.00
2019-02-10T10:06:33.877Z,9.12
2019-02-10T10:09:04.494Z,9.18
2019-02-10T10:11:33.678Z,9.23
2019-02-10T10:14:02.831Z,9.26
2019-02-10T10:16:32.127Z,9.28
2019-02-10T10:19:02.443Z,9.31
2019-02-10T10:21:31.808Z,9.31
2019-02-10T10:24:00.976Z,9.31
2019-02-10T10:26:30.343Z,9.35
2019-02-10T10:28:59.730Z,9.39
2019-02-10T10:31:28.997Z,9.41
2019-02-10T10:33:58.202Z,9.39
2019-02-10T10:36:27.386Z,9.48
2019-02-10T10:38:56.556Z,9.52
2019-02-10T10:41:25.958Z,9.54
2019-02-10T10:43:55.184Z,9.58
2019-02-10T10:46:24.336Z,9.63
2019-02-10T10:48:53.578Z,9.67
2019-02-10T10:51:22.918Z,9.73
2019-02-10T10:53:52.375Z,9.79
2019-02-10T10:56:21.594Z,9.74
2019-02-10T10:58:50.855Z,9.68
2019-02-10T11:01:25.301Z,9.63
2019-02-10T11:03:52.289Z,9.61
2019-02-10T11:06:21.666Z,9.62
2019-02-10T11:08:50.919Z,9.66
2019-02-10T11:11:20.136Z,9.78
2019-02-10T11:13:49.471Z,9.92
2019-02-10T11:16:18.797Z,10.07
2019-02-10T11:18:48.142Z,10.11
2019-02-10T11:21:17.329Z,10.11
2019-02-10T11:23:46.572Z,10.09
2019-02-10T11:26:15.762Z,10.08
2019-02-10T11:28:44.935Z,9.98
2019-02-10T11:31:14.157Z,9.94
2019-02-10T11:33:44.604Z,9.86
2019-02-10T11:36:15.222Z,9.78
2019-02-10T11:38:44.482Z,9.66
2019-02-10T11:41:13.953Z,9.51
2019-02-10T11:43:43.172Z,9.31
2019-02-10T11:46:12.355Z,9.18
2019-02-10T11:48:41.689Z,9.12
2019-02-10T11:51:11.084Z,9.15
2019-02-10T11:53:40.299Z,9.19
2019-02-10T11:56:09.725Z,9.25
2019-02-10T11:58:38.910Z,9.31
2019-02-10T12:01:08.275Z,9.29
2019-02-10T12:03:37.480Z,9.29
2019-02-10T12:06:09.159Z,9.27
2019-02-10T12:08:40.532Z,9.27
2019-02-10T12:11:09.830Z,9.26
2019-02-10T12:13:40.403Z,9.13
2019-02-10T12:16:09.709Z,9.06
2019-02-10T12:18:38.907Z,8.98
2019-02-10T12:21:08.460Z,8.88
2019-02-10T12:23:37.764Z,8.86
2019-02-10T12:26:06.956Z,8.80
2019-02-10T12:28:36.377Z,8.76
2019-02-10T12:31:06.802Z,8.74
2019-02-10T12:33:36.017Z,8.73
2019-02-10T12:36:05.334Z,8.71
2019-02-10T12:38:34.518Z,8.69
2019-02-10T12:41:03.971Z,8.70
2019-02-10T12:43:33.231Z,8.65
2019-02-10T12:46:03.195Z,8.63
2019-02-10T12:48:32.544Z,8.68
2019-02-10T12:51:03.573Z,8.79
2019-02-10T12:53:33.898Z,8.84
2019-02-10T12:56:03.342Z,8.84
2019-02-10T12:58:32.688Z,8.82
2019-02-10T13:01:03.444Z,8.82
2019-02-10T13:03:32.939Z,8.77
2019-02-10T13:06:03.042Z,8.72
2019-02-10T13:08:32.436Z,8.66
2019-02-10T13:11:02.108Z,8.59
2019-02-10T13:13:31.334Z,8.51
2019-02-10T13:16:00.547Z,8.48
2019-02-10T13:18:30.115Z,8.48
2019-02-10T13:20:59.329Z,8.59
2019-02-10T13:23:28.903Z,8.90
2019-02-10T13:25:58.191Z,8.94
2019-02-10T13:28:27.871Z,8.83
2019-02-10T13:30:57.690Z,8.70
2019-02-10T13:33:26.940Z,8.70
2019-02-10T13:35:59.051Z,8.61
2019-02-10T13:38:28.567Z,8.53
2019-02-10T13:40:57.849Z,8.45
2019-02-10T13:43:33.396Z,8.29
2019-02-10T13:45:58.262Z,8.33
2019-02-10T13:48:27.575Z,8.29
2019-02-10T13:50:56.831Z,8.26
2019-02-10T13:53:26.990Z,8.37
2019-02-10T13:55:56.556Z,8.63
2019-02-10T13:58:25.871Z,8.45
2019-02-10T14:00:55.315Z,8.36
2019-02-10T14:03:24.612Z,8.26
2019-02-10T14:05:55.934Z,8.14
2019-02-10T14:08:25.302Z,8.11
2019-02-10T14:10:54.759Z,8.05
2019-02-10T14:13:23.965Z,7.91
2019-02-10T14:15:53.328Z,7.76
2019-02-10T14:18:22.621Z,7.71
2019-02-10T14:20:51.899Z,7.33
2019-02-10T14:23:21.144Z,7.25
2019-02-10T14:25:50.470Z,7.22
2019-02-10T14:28:19.938Z,7.10
2019-02-10T14:30:49.964Z,7.15
2019-02-10T14:33:19.330Z,6.96
2019-02-10T14:35:50.528Z,6.99
2019-02-10T14:38:19.858Z,6.88
2019-02-10T14:40:49.153Z,6.74
2019-02-10T14:43:18.378Z,6.77
2019-02-10T14:45:47.828Z,6.75
2019-02-10T14:48:17.055Z,6.66
2019-02-10T14:50:48.350Z,6.62
2019-02-10T14:53:17.756Z,6.62
2019-02-10T14:55:47.661Z,6.61
2019-02-10T14:58:16.995Z,6.58
2019-02-10T15:00:46.250Z,6.57
2019-02-10T15:03:15.798Z,6.48
2019-02-10T15:05:45.318Z,6.49
2019-02-10T15:08:14.576Z,6.51
2019-02-10T15:10:43.924Z,6.52
2019-02-10T15:13:14.130Z,6.44
2019-02-10T15:15:43.472Z,6.47
2019-02-10T15:18:14.152Z,6.49
2019-02-10T15:20:47.032Z,6.39
2019-02-10T15:23:16.736Z,6.45
2019-02-10T15:25:46.047Z,6.46
2019-02-10T15:28:15.391Z,6.43
2019-02-10T15:30:45.002Z,6.43
2019-02-10T15:33:15.284Z,6.39
2019-02-10T15:35:44.959Z,6.47
2019-02-10T15:38:15.290Z,6.47
2019-02-10T15:40:49.844Z,6.55
2019-02-10T15:43:16.024Z,6.52
2019-02-10T15:45:46.302Z,6.58
2019-02-10T15:48:16.069Z,6.58
2019-02-10T15:50:45.631Z,6.61
2019-02-10T15:53:15.942Z,6.58
2019-02-10T15:55:45.891Z,6.60
2019-02-10T15:58:15.252Z,6.58
2019-02-10T16:00:46.674Z,6.55
2019-02-10T16:03:16.307Z,6.59
2019-02-10T16:05:46.126Z,6.53
2019-02-10T16:08:15.863Z,6.45
2019-02-10T16:10:47.375Z,6.32
2019-02-10T16:13:16.755Z,6.26
2019-02-10T16:15:46.031Z,6.27
2019-02-10T16:18:15.924Z,6.20
2019-02-10T16:20:45.208Z,6.22
2019-02-10T16:23:14.686Z,6.21
2019-02-10T16:25:43.932Z,6.16
2019-02-10T16:28:13.260Z,6.06
2019-02-10T16:30:42.608Z,5.97
2019-02-10T16:33:11.940Z,5.94
2019-02-10T16:35:41.653Z,5.92
2019-02-10T16:38:11.170Z,5.90
2019-02-10T16:40:40.994Z,5.81
2019-02-10T16:43:10.566Z,5.77
2019-02-10T16:45:40.188Z,5.83
2019-02-10T16:48:09.717Z,5.83
2019-02-10T16:50:38.984Z,5.82
2019-02-10T16:53:08.867Z,5.81
2019-02-10T16:55:38.186Z,5.75
2019-02-10T16:58:07.537Z,5.82
2019-02-10T17:00:36.929Z,5.76
2019-02-10T17:03:07.777Z,5.74
2019-02-10T17:05:37.589Z,5.68
2019-02-10T17:08:06.844Z,5.66
2019-02-10T17:10:36.191Z,5.60
2019-02-10T17:13:05.663Z,5.55
2019-02-10T17:15:34.903Z,5.60
2019-02-10T17:18:04.410Z,5.51
2019-02-10T17:20:33.618Z,5.48
2019-02-10T17:23:03.483Z,5.42
2019-02-10T17:25:33.898Z,5.41
2019-02-10T17:28:03.214Z,5.44
2019-02-10T17:30:32.855Z,5.30
2019-02-10T17:33:02.767Z,5.28
2019-02-10T17:35:32.400Z,5.26
2019-02-10T17:38:02.547Z,5.33
2019-02-10T17:40:35.393Z,5.32
2019-02-10T17:43:04.836Z,5.18
2019-02-10T17:45:34.147Z,5.23
2019-02-10T17:48:03.501Z,5.17
2019-02-10T17:50:33.999Z,5.11
2019-02-10T17:53:03.279Z,5.05
2019-02-10T17:55:33.213Z,4.98
2019-02-10T17:58:02.587Z,4.96
2019-02-10T18:00:36.214Z,4.89
2019-02-10T18:03:06.367Z,4.83
2019-02-10T18:05:35.777Z,4.74
2019-02-10T18:08:05.517Z,4.64
2019-02-10T18:10:35.278Z,4.50
2019-02-10T18:13:05.644Z,4.44
2019-02-10T18:16:04.205Z,4.31
2019-02-10T18:18:58.645Z,4.28
2019-02-10T18:21:51.823Z,4.23
2019-02-10T18:24:27.275Z,4.17
2019-02-10T18:27:14.271Z,4.11
2019-02-10T18:30:05.376Z,4.07
2019-02-10T18:33:03.163Z,4.01
2019-02-10T18:35:54.332Z,3.97
2019-02-10T18:38:35.169Z,3.92
2019-02-10T18:41:23.811Z,3.90
2019-02-10T18:44:20.259Z,3.89
2019-02-10T18:47:12.707Z,3.85
2019-02-10T18:50:00.710Z,3.86
2019-02-10T18:52:50.974Z,3.87
2019-02-10T18:55:40.538Z,3.86
2019-02-10T18:58:41.551Z,3.85
2019-02-10T19:01:31.020Z,3.86
2019-02-10T19:04:23.662Z,3.80
2019-02-10T19:07:00.717Z,3.80
2019-02-10T19:09:40.867Z,3.81
2019-02-10T19:12:18.515Z,3.83
2019-02-10T19:15:05.365Z,3.74
2019-02-10T19:17:57.844Z,3.68
2019-02-10T19:20:58.475Z,3.64
2019-02-10T19:23:47.077Z,3.62
2019-02-10T19:26:27.766Z,3.61
2019-02-10T19:29:22.444Z,3.61
2019-02-10T19:32:09.655Z,3.59
2019-02-10T19:34:47.418Z,3.61
2019-02-10T19:37:38.193Z,3.62
2019-02-10T19:40:44.906Z,3.61
2019-02-10T19:43:39.119Z,3.62
2019-02-10T19:46:23.507Z,3.65
2019-02-10T19:49:15.056Z,3.67
2019-02-10T19:52:17.909Z,3.66
2019-02-10T19:55:17.904Z,3.67
2019-02-10T19:58:09.438Z,3.70
2019-02-10T20:00:56.524Z,3.72
2019-02-10T20:03:43.652Z,3.70
2019-02-10T20:06:23.618Z,3.67
2019-02-10T20:09:14.986Z,3.66
2019-02-10T20:12:04.327Z,3.66
2019-02-10T20:14:58.269Z,3.65
2019-02-10T20:17:58.727Z,3.64
2019-02-10T20:20:52.781Z,3.58
2019-02-10T20:23:59.133Z,3.61
2019-02-10T20:26:51.161Z,3.60
2019-02-10T20:29:39.831Z,3.61
2019-02-10T20:32:25.378Z,3.61
2019-02-10T20:35:11.056Z,3.62
2019-02-10T20:38:03.413Z,3.67
2019-02-10T20:41:02.571Z,3.62
2019-02-10T20:43:49.592Z,3.69
2019-02-10T20:46:39.299Z,3.71
2019-02-10T20:49:22.796Z,3.75
2019-02-10T20:52:09.959Z,3.76
2019-02-10T20:55:02.221Z,3.80
2019-02-10T20:58:05.701Z,3.87
2019-02-10T21:00:55.128Z,3.93
2019-02-10T21:03:42.199Z,3.93
2019-02-10T21:06:18.524Z,3.96
2019-02-10T21:09:01.005Z,3.93
2019-02-10T21:11:44.660Z,4.00
2019-02-10T21:14:47.308Z,3.98
2019-02-10T21:17:26.417Z,4.01
2019-02-10T21:20:26.693Z,4.01
2019-02-10T21:23:17.010Z,4.00
2019-02-10T21:26:03.871Z,4.03
2019-02-10T21:28:46.182Z,4.01
2019-02-10T21:31:31.254Z,4.07
2019-02-10T21:34:18.198Z,4.10
2019-02-10T21:37:15.477Z,4.14
2019-02-10T21:40:03.131Z,4.21
2019-02-10T21:42:57.139Z,4.28
2019-02-10T21:45:57.326Z,4.34
2019-02-10T21:48:30.281Z,4.42
2019-02-10T21:50:59.616Z,4.47
2019-02-10T21:53:29.082Z,4.53
2019-02-10T21:56:00.773Z,4.64
2019-02-10T21:58:30.281Z,4.65
2019-02-10T22:00:59.513Z,4.70
2019-02-10T22:03:28.954Z,4.70
2019-02-10T22:05:58.224Z,4.76
2019-02-10T22:08:27.537Z,4.74
2019-02-10T22:10:56.857Z,4.80
2019-02-10T22:13:26.028Z,4.80
2019-02-10T22:15:56.932Z,4.83
2019-02-10T22:18:26.232Z,4.85
2019-02-10T22:20:55.598Z,4.91
2019-02-10T22:23:24.914Z,4.92
2019-02-10T22:25:54.176Z,4.95
2019-02-10T22:28:23.405Z,4.90
2019-02-10T22:30:52.911Z,4.94
2019-02-10T22:33:22.155Z,5.01
2019-02-10T22:35:51.317Z,5.03
2019-02-10T22:38:20.534Z,5.06
2019-02-10T22:40:49.748Z,5.08
2019-02-10T22:43:19.078Z,5.10
2019-02-10T22:45:48.236Z,5.09
2019-02-10T22:48:17.593Z,5.09
2019-02-10T22:50:46.840Z,5.08
2019-02-10T22:53:16.093Z,5.13
2019-02-10T22:55:45.278Z,5.15
2019-02-10T22:58:14.479Z,5.13
2019-02-10T23:00:51.962Z,5.15
2019-02-10T23:03:21.107Z,5.15
2019-02-10T23:05:50.340Z,5.12
2019-02-10T23:08:19.488Z,5.15
2019-02-10T23:10:48.684Z,5.17
2019-02-10T23:13:17.884Z,5.15
2019-02-10T23:15:47.111Z,5.22
2019-02-10T23:18:16.287Z,5.21
2019-02-10T23:20:45.484Z,5.23
2019-02-10T23:23:14.706Z,5.25
2019-02-10T23:25:44.059Z,5.22
2019-02-10T23:28:13.317Z,5.21
2019-02-10T23:30:42.499Z,5.25
2019-02-10T23:33:11.680Z,5.28
2019-02-10T23:35:40.861Z,5.25
2019-02-10T23:38:10.329Z,5.25
2019-02-10T23:40:39.474Z,5.23
2019-02-10T23:43:08.719Z,5.23
2019-02-10T23:45:38.145Z,5.17
2019-02-10T23:48:07.482Z,5.18
2019-02-10T23:50:36.770Z,5.18
2019-02-10T23:53:05.931Z,5.23
2019-02-10T23:55:35.177Z,5.26
2019-02-10T23:58:04.353Z,5.29
